Time;durP1;ratioP1;P1;durP2;ratioP2;P2;SDS_P1;SDS_P2;PMS_P1;PMS_P2;Temp;Humidity;BMP_temperature;BMP_pressure;BME280_temperature;BME280_humidity;BME280_pressure;Samples;Min_cycle;Max_cycle;Signal;HPM_P1;HPM_P2
2023/01/19 00:02:59;;;;;;;7.47;6.77;;;1.10;99.90;;;;;;5020030;28;20185;-73
2023/01/19 00:05:25;;;;;;;11.83;7.83;;;1.00;99.90;;;;;;5004867;28;20221;-73
2023/01/19 00:07:50;;;;;;;7.57;6.87;;;1.00;99.90;;;;;;5019686;28;20195;-73
2023/01/19 00:10:16;;;;;;;10.67;8.73;;;1.00;99.90;;;;;;5008754;28;20178;-74
2023/01/19 00:12:42;;;;;;;8.30;7.40;;;0.90;99.90;;;;;;5008426;28;20189;-73
2023/01/19 00:15:08;;;;;;;9.93;6.93;;;1.00;99.90;;;;;;5009907;28;20185;-72
2023/01/19 00:17:33;;;;;;;9.40;7.40;;;1.00;99.90;;;;;;5013184;28;20184;-73
2023/01/19 00:19:59;;;;;;;10.13;7.93;;;1.00;99.90;;;;;;5012058;28;20590;-72
2023/01/19 00:22:24;;;;;;;8.30;7.37;;;0.80;99.90;;;;;;5010096;28;20182;-72
2023/01/19 00:24:50;;;;;;;9.37;7.80;;;0.70;99.90;;;;;;5012394;28;20566;-72
2023/01/19 00:27:15;;;;;;;11.77;7.47;;;0.60;99.90;;;;;;5010795;28;20181;-72
2023/01/19 00:29:41;;;;;;;8.63;7.70;;;0.50;99.90;;;;;;5015191;28;20170;-72
2023/01/19 00:32:07;;;;;;;11.50;7.97;;;0.40;99.90;;;;;;5016823;28;20176;-72
2023/01/19 00:34:41;;;;;;;7.70;6.90;;;0.30;99.90;;;;;;5011967;28;20672;-73
2023/01/19 00:37:10;;;;;;;5.40;4.90;;;0.40;99.90;;;;;;5019271;28;20861;-73
2023/01/19 00:39:35;;;;;;;8.67;7.53;;;0.30;99.90;;;;;;5021480;28;20284;-73
2023/01/19 00:44:45;;;;;;;13.13;7.07;;;0.30;99.90;;;;;;5018259;28;20226;-73
2023/01/19 00:47:11;;;;;;;9.40;6.87;;;0.20;99.90;;;;;;5007038;28;20185;-73
2023/01/19 00:49:36;;;;;;;9.00;7.30;;;0.20;99.90;;;;;;5009370;28;20205;-73
2023/01/19 00:52:02;;;;;;;8.30;7.23;;;0.10;99.90;;;;;;5008772;28;20185;-73
2023/01/19 00:54:27;;;;;;;10.17;8.13;;;0.10;99.90;;;;;;5008760;28;20201;-74
2023/01/19 00:56:53;;;;;;;9.80;7.17;;;0.00;99.90;;;;;;5014562;28;20595;-73
2023/01/19 00:59:18;;;;;;;10.27;7.03;;;0.10;99.90;;;;;;5013584;28;20178;-73
2023/01/19 01:01:44;;;;;;;9.33;7.73;;;0.10;99.90;;;;;;5025790;28;20189;-73
2023/01/19 01:04:12;;;;;;;10.03;6.83;;;0.20;99.90;;;;;;5027939;28;20292;-73
2023/01/19 01:06:38;;;;;;;8.77;7.87;;;0.30;99.90;;;;;;5017824;28;20205;-73
2023/01/19 01:09:10;;;;;;;8.50;7.60;;;0.40;99.90;;;;;;5015243;28;20643;-72
2023/01/19 01:11:40;;;;;;;9.23;7.80;;;0.30;99.90;;;;;;5018281;28;20180;-72
2023/01/19 01:14:06;;;;;;;9.43;7.13;;;0.40;99.90;;;;;;5019181;28;20680;-73
2023/01/19 01:16:32;;;;;;;9.40;7.90;;;0.60;99.90;;;;;;5024682;28;20193;-73
2023/01/19 01:18:58;;;;;;;11.37;7.67;;;0.70;99.90;;;;;;5025700;28;20181;-73
2023/01/19 01:21:23;;;;;;;8.20;7.10;;;0.70;99.90;;;;;;5022598;28;20707;-73
2023/01/19 01:23:49;;;;;;;8.37;7.37;;;0.80;99.90;;;;;;5025666;28;20236;-73
2023/01/19 01:26:15;;;;;;;12.30;7.63;;;0.80;99.90;;;;;;5016341;28;20213;-73
2023/01/19 01:28:40;;;;;;;7.23;6.33;;;1.00;99.90;;;;;;5026799;28;20185;-70
2023/01/19 01:31:06;;;;;;;8.53;6.17;;;1.10;99.90;;;;;;5011551;28;20193;-73
2023/01/19 01:33:31;;;;;;;8.17;6.57;;;1.20;99.90;;;;;;5016518;28;20199;-72
2023/01/19 01:35:57;;;;;;;7.53;6.77;;;1.20;99.90;;;;;;5012363;28;20189;-72
2023/01/19 01:38:23;;;;;;;8.27;6.73;;;1.20;99.90;;;;;;5017133;28;20239;-72
2023/01/19 01:40:49;;;;;;;8.13;5.93;;;1.20;99.90;;;;;;5028744;28;20268;-74
2023/01/19 01:43:16;;;;;;;9.30;5.83;;;1.00;99.90;;;;;;5022822;28;20204;-74
2023/01/19 01:45:42;;;;;;;8.80;6.73;;;1.10;99.90;;;;;;5020067;28;20274;-73
2023/01/19 01:48:23;;;;;;;9.43;6.80;;;1.10;99.90;;;;;;5019699;28;20189;-74
2023/01/19 01:53:46;;;;;;;11.07;7.70;;;0.90;99.90;;;;;;5021820;28;20738;-74
2023/01/19 01:56:16;;;;;;;12.70;8.60;;;0.90;99.90;;;;;;5023334;28;20193;-74
2023/01/19 01:58:42;;;;;;;8.00;6.93;;;0.80;99.90;;;;;;5022028;28;20205;-74
2023/01/19 02:03:54;;;;;;;10.60;7.13;;;0.80;99.90;;;;;;5022436;28;20254;-74
2023/01/19 02:06:21;;;;;;;10.67;7.40;;;0.90;99.90;;;;;;5027103;28;20243;-74
2023/01/19 02:14:37;;;;;;;8.07;7.27;;;0.80;99.90;;;;;;5017037;28;20235;-74
2023/01/19 02:17:04;;;;;;;11.47;7.17;;;0.70;99.90;;;;;;5025858;28;20181;-73
2023/01/19 02:19:40;;;;;;;11.23;7.70;;;0.70;99.90;;;;;;5024459;28;20215;-74
2023/01/19 02:22:14;;;;;;;10.50;7.80;;;0.70;99.90;;;;;;5018093;28;20243;-74
2023/01/19 02:24:40;;;;;;;13.93;8.57;;;0.60;99.90;;;;;;5018527;28;20205;-74
2023/01/19 02:27:06;;;;;;;10.53;7.13;;;0.70;99.90;;;;;;5017557;28;20383;-74
2023/01/19 02:29:33;;;;;;;10.83;8.10;;;0.60;99.90;;;;;;5024982;28;20184;-73
2023/01/19 02:32:00;;;;;;;11.43;8.40;;;0.60;99.90;;;;;;5018521;28;20592;-74
2023/01/19 02:34:26;;;;;;;11.43;7.67;;;0.70;99.90;;;;;;5017927;28;20196;-74
2023/01/19 02:37:00;;;;;;;9.60;7.67;;;0.70;99.90;;;;;;5021833;28;20184;-74
2023/01/19 02:39:32;;;;;;;8.13;6.87;;;0.80;99.90;;;;;;5022252;28;20264;-74
2023/01/19 02:42:09;;;;;;;11.67;8.80;;;0.80;99.90;;;;;;5013845;28;20185;-74
2023/01/19 02:44:37;;;;;;;13.30;8.93;;;0.80;99.90;;;;;;5014590;28;20675;-74
2023/01/19 02:47:03;;;;;;;11.07;8.50;;;0.80;99.90;;;;;;5026837;28;20267;-74
2023/01/19 02:49:29;;;;;;;8.37;6.83;;;0.70;99.90;;;;;;5018204;28;20215;-72
2023/01/19 02:51:56;;;;;;;11.77;8.23;;;0.80;99.90;;;;;;5023269;28;20326;-74
2023/01/19 02:54:40;;;;;;;12.10;8.70;;;0.80;99.90;;;;;;5018533;28;20204;-74
2023/01/19 02:57:32;;;;;;;11.43;8.57;;;0.80;99.90;;;;;;5029246;28;20369;-73
2023/01/19 03:00:09;;;;;;;9.30;7.90;;;0.70;99.90;;;;;;5026128;28;20200;-73
2023/01/19 03:02:46;;;;;;;9.03;8.07;;;0.70;99.90;;;;;;5026516;28;20536;-74
2023/01/19 03:05:53;;;;;;;10.87;7.97;;;0.70;99.90;;;;;;5023085;28;20215;-74
2023/01/19 03:08:41;;;;;;;11.40;8.43;;;0.70;99.90;;;;;;5012068;28;20734;-73
2023/01/19 03:11:14;;;;;;;10.37;7.67;;;0.80;99.90;;;;;;5018985;28;20223;-72
2023/01/19 03:13:51;;;;;;;10.53;7.73;;;0.90;99.90;;;;;;5014315;28;20263;-73
2023/01/19 03:16:20;;;;;;;9.40;7.77;;;0.90;99.90;;;;;;5022684;28;20292;-73
2023/01/19 03:18:52;;;;;;;9.23;7.90;;;0.80;99.90;;;;;;5016200;28;20220;-74
2023/01/19 03:21:20;;;;;;;10.70;8.47;;;0.90;99.90;;;;;;5015891;28;20563;-74
2023/01/19 03:23:48;;;;;;;10.13;8.20;;;1.00;99.90;;;;;;5020942;28;20212;-74
2023/01/19 03:26:19;;;;;;;6.97;6.00;;;1.00;99.90;;;;;;5012972;28;20634;-74
2023/01/19 03:28:47;;;;;;;13.03;8.00;;;1.00;99.90;;;;;;5021290;28;20230;-73
2023/01/19 03:31:21;;;;;;;10.30;8.37;;;0.90;99.90;;;;;;5015074;28;20232;-74
2023/01/19 03:33:52;;;;;;;10.37;8.30;;;0.90;99.90;;;;;;5019214;28;20215;-74
2023/01/19 03:36:34;;;;;;;8.43;7.53;;;0.90;99.90;;;;;;5018792;28;20189;-71
2023/01/19 03:39:02;;;;;;;11.77;7.50;;;0.90;99.90;;;;;;5011269;28;20655;-73
2023/01/19 03:41:30;;;;;;;12.87;7.83;;;0.90;99.90;;;;;;5009428;28;20191;-73
2023/01/19 03:43:56;;;;;;;6.67;5.77;;;0.90;99.90;;;;;;5013106;28;20599;-73
2023/01/19 03:46:23;;;;;;;9.00;6.93;;;1.00;99.90;;;;;;5019190;28;20266;-72
2023/01/19 03:48:49;;;;;;;10.27;8.60;;;1.00;99.90;;;;;;5016766;28;20188;-74
2023/01/19 03:51:15;;;;;;;9.50;7.63;;;1.00;99.90;;;;;;5022073;28;20185;-74
2023/01/19 03:53:41;;;;;;;8.00;7.20;;;1.00;99.90;;;;;;5013587;28;20582;-73
2023/01/19 03:56:19;;;;;;;10.20;7.77;;;0.90;99.90;;;;;;5015968;28;20181;-74
2023/01/19 03:58:45;;;;;;;9.70;8.20;;;0.90;99.90;;;;;;5025822;28;20271;-73
2023/01/19 04:01:12;;;;;;;10.07;7.70;;;0.90;99.90;;;;;;5019335;28;20271;-73
2023/01/19 04:03:38;;;;;;;12.37;8.10;;;0.90;99.90;;;;;;5017784;28;20581;-74
2023/01/19 04:06:04;;;;;;;11.30;8.47;;;0.90;99.90;;;;;;5015586;28;20217;-70
2023/01/19 04:08:30;;;;;;;10.97;8.50;;;0.80;99.90;;;;;;5008757;28;20182;-74
2023/01/19 04:10:57;;;;;;;9.50;7.37;;;0.80;99.90;;;;;;5021640;28;20169;-74
2023/01/19 04:13:22;;;;;;;9.53;7.47;;;0.80;99.90;;;;;;5018014;28;20215;-74
2023/01/19 04:15:48;;;;;;;8.53;7.23;;;0.80;99.90;;;;;;5018052;28;20181;-74
2023/01/19 04:18:13;;;;;;;10.87;8.30;;;0.80;99.90;;;;;;5017584;28;20659;-71
2023/01/19 04:20:39;;;;;;;9.80;8.07;;;0.70;99.90;;;;;;5021683;28;20185;-73
2023/01/19 04:23:04;;;;;;;9.70;8.00;;;0.60;99.90;;;;;;5025719;28;20208;-74
2023/01/19 04:25:30;;;;;;;9.83;7.70;;;0.60;99.90;;;;;;5018974;28;20209;-74
2023/01/19 04:27:59;;;;;;;8.67;7.73;;;0.50;99.90;;;;;;5030697;28;20662;-74
2023/01/19 04:30:26;;;;;;;8.50;7.57;;;0.40;99.90;;;;;;5024397;28;20208;-74
2023/01/19 04:32:52;;;;;;;6.50;5.77;;;0.20;99.90;;;;;;5011904;28;20662;-73
2023/01/19 04:35:18;;;;;;;8.40;7.37;;;0.10;99.90;;;;;;5017919;28;20240;-72
2023/01/19 04:37:44;;;;;;;10.97;7.53;;;0.30;99.90;;;;;;5022257;28;20636;-72
2023/01/19 04:40:10;;;;;;;9.53;8.17;;;0.10;99.90;;;;;;5027431;28;20191;-72
2023/01/19 04:42:36;;;;;;;11.53;8.30;;;-0.10;99.90;;;;;;5014561;28;20196;-73
2023/01/19 04:45:01;;;;;;;9.73;8.20;;;-0.20;99.90;;;;;;5031552;28;20196;-73
2023/01/19 04:47:27;;;;;;;9.73;8.23;;;-0.30;99.90;;;;;;5018422;28;20184;-72
2023/01/19 04:49:52;;;;;;;8.63;7.57;;;-0.50;99.90;;;;;;5024965;28;20188;-71
2023/01/19 04:52:19;;;;;;;10.13;7.87;;;-0.50;99.90;;;;;;5023812;28;20711;-71
2023/01/19 04:54:44;;;;;;;12.00;8.57;;;-0.50;99.90;;;;;;5032903;28;20203;-73
2023/01/19 04:57:10;;;;;;;9.77;8.13;;;-0.60;99.90;;;;;;5019082;28;20193;-73
2023/01/19 04:59:35;;;;;;;11.43;8.80;;;-0.60;99.90;;;;;;5014925;28;20197;-73
2023/01/19 05:02:01;;;;;;;11.17;9.00;;;-0.80;99.90;;;;;;5032275;28;20187;-73
2023/01/19 05:04:26;;;;;;;10.23;8.53;;;-0.90;99.90;;;;;;5016959;28;20201;-72
2023/01/19 05:06:53;;;;;;;10.70;8.63;;;-1.00;99.90;;;;;;5023473;28;20686;-73
2023/01/19 05:09:18;;;;;;;9.70;8.20;;;-0.90;99.90;;;;;;5018903;28;20185;-73
2023/01/19 05:11:44;;;;;;;12.13;9.33;;;-1.00;99.90;;;;;;5022929;28;20628;-73
2023/01/19 05:14:10;;;;;;;11.00;8.80;;;-1.00;99.90;;;;;;5020946;28;20743;-73
2023/01/19 05:16:36;;;;;;;12.67;9.87;;;-1.00;99.90;;;;;;5012077;28;20220;-73
2023/01/19 05:19:01;;;;;;;12.70;9.03;;;-1.00;99.90;;;;;;5012759;28;20213;-73
2023/01/19 05:21:27;;;;;;;11.83;8.67;;;-1.10;99.90;;;;;;5018327;28;20193;-72
2023/01/19 05:23:52;;;;;;;14.33;10.07;;;-1.10;99.90;;;;;;5029328;28;20200;-73
2023/01/19 05:26:18;;;;;;;11.03;9.40;;;-1.10;99.90;;;;;;5017564;28;20220;-73
2023/01/19 05:28:43;;;;;;;13.37;9.57;;;-1.10;99.90;;;;;;5022909;28;20681;-73
2023/01/19 05:31:09;;;;;;;11.27;8.37;;;-1.20;99.90;;;;;;5031705;28;20184;-72
2023/01/19 05:33:35;;;;;;;10.40;9.03;;;-1.20;99.90;;;;;;5016991;28;20211;-73
2023/01/19 05:36:00;;;;;;;9.83;8.37;;;-1.10;99.90;;;;;;5017646;28;20734;-73
2023/01/19 05:38:26;;;;;;;12.60;9.00;;;-1.30;99.90;;;;;;5027519;28;20604;-73
2023/01/19 05:40:58;;;;;;;9.67;8.43;;;-1.30;99.90;;;;;;5013184;28;20188;-73
2023/01/19 05:43:24;;;;;;;12.30;9.53;;;-1.20;99.90;;;;;;5016529;28;20308;-72
2023/01/19 05:45:50;;;;;;;9.37;7.40;;;-1.20;99.90;;;;;;5021625;28;20322;-73
2023/01/19 05:48:16;;;;;;;11.93;10.63;;;-1.20;99.90;;;;;;5026575;28;20187;-72
2023/01/19 05:50:42;;;;;;;15.00;9.53;;;-1.20;99.90;;;;;;5013948;28;20186;-72
2023/01/19 05:53:07;;;;;;;12.70;9.10;;;-1.20;99.90;;;;;;5010037;28;20204;-73
2023/01/19 05:55:33;;;;;;;15.60;9.87;;;-1.20;99.90;;;;;;5021024;28;20583;-74
2023/01/19 05:57:59;;;;;;;12.10;8.37;;;-1.30;99.90;;;;;;5026260;28;20188;-72
2023/01/19 06:00:26;;;;;;;11.73;8.73;;;-1.30;99.90;;;;;;5026938;28;20196;-72
2023/01/19 06:02:52;;;;;;;12.23;8.43;;;-1.30;99.90;;;;;;5015575;28;20213;-72
2023/01/19 06:05:17;;;;;;;12.40;8.73;;;-1.40;99.90;;;;;;5019186;28;20205;-72
2023/01/19 06:07:43;;;;;;;9.77;8.40;;;-1.40;99.90;;;;;;5025497;28;20304;-73
2023/01/19 06:10:09;;;;;;;12.03;9.50;;;-1.40;99.90;;;;;;5009889;28;20600;-72
2023/01/19 06:12:36;;;;;;;11.50;9.20;;;-1.40;99.90;;;;;;5015268;28;20189;-73
2023/01/19 06:15:01;;;;;;;14.57;9.50;;;-1.50;99.90;;;;;;5018140;28;20281;-73
2023/01/19 06:17:27;;;;;;;11.40;9.40;;;-1.60;99.90;;;;;;5008063;28;20233;-73
2023/01/19 06:19:52;;;;;;;11.77;9.10;;;-1.70;99.90;;;;;;5023006;28;20648;-75
2023/01/19 06:22:18;;;;;;;11.13;9.43;;;-1.80;99.90;;;;;;5022241;28;20180;-75
2023/01/19 06:24:43;;;;;;;16.70;10.13;;;-1.70;99.90;;;;;;5013201;28;20272;-76
2023/01/19 06:27:10;;;;;;;15.77;10.57;;;-1.70;99.90;;;;;;5019287;28;20189;-76
2023/01/19 06:29:35;;;;;;;11.53;10.03;;;-1.80;99.90;;;;;;5015142;28;20185;-75
2023/01/19 06:32:01;;;;;;;10.93;9.53;;;-1.80;99.90;;;;;;5010561;28;20247;-76
2023/01/19 06:34:27;;;;;;;10.07;8.37;;;-1.80;99.90;;;;;;5018336;28;20287;-76
2023/01/19 06:36:54;;;;;;;10.37;9.30;;;-1.80;99.90;;;;;;5017544;28;20184;-76
2023/01/19 06:39:20;;;;;;;10.20;8.67;;;-1.70;99.90;;;;;;5015115;28;20189;-75
2023/01/19 06:41:46;;;;;;;10.23;9.00;;;-1.80;99.90;;;;;;5014761;28;20251;-75
2023/01/19 06:44:12;;;;;;;10.70;9.20;;;-1.80;99.90;;;;;;5019559;28;20560;-73
2023/01/19 06:46:37;;;;;;;11.50;9.47;;;-1.80;99.90;;;;;;5017679;28;20215;-76
2023/01/19 06:49:03;;;;;;;10.83;9.20;;;-1.80;99.90;;;;;;5023842;28;20547;-77
2023/01/19 06:51:28;;;;;;;10.97;9.07;;;-1.80;99.90;;;;;;5023816;28;20191;-76
2023/01/19 06:53:54;;;;;;;11.30;9.53;;;-1.90;99.90;;;;;;5021428;28;20196;-75
2023/01/19 06:56:20;;;;;;;13.23;9.77;;;-1.90;99.90;;;;;;5010974;28;20335;-72
2023/01/19 06:58:49;;;;;;;11.53;9.00;;;-1.80;99.90;;;;;;5016173;28;20654;-72
2023/01/19 07:01:15;;;;;;;12.40;9.90;;;-1.90;99.90;;;;;;5023208;28;20587;-73
2023/01/19 07:03:41;;;;;;;11.97;9.60;;;-1.90;99.90;;;;;;5018488;28;20607;-75
2023/01/19 07:06:06;;;;;;;12.37;8.53;;;-1.90;99.90;;;;;;5018447;28;20204;-74
2023/01/19 07:08:33;;;;;;;13.07;9.97;;;-1.80;99.90;;;;;;5020344;28;20219;-75
2023/01/19 07:11:07;;;;;;;12.07;10.17;;;-1.50;99.90;;;;;;5018514;28;20287;-74
2023/01/19 07:13:33;;;;;;;11.73;9.40;;;-1.40;99.90;;;;;;5011488;28;20212;-72
2023/01/19 07:16:07;;;;;;;10.00;8.03;;;-1.40;99.90;;;;;;5013074;28;20562;-72
2023/01/19 07:18:34;;;;;;;10.53;8.37;;;-1.30;99.90;;;;;;5018355;28;20252;-70
2023/01/19 07:20:59;;;;;;;20.93;9.13;;;-1.20;99.90;;;;;;5023876;28;20181;-70
2023/01/19 07:23:29;;;;;;;11.57;9.10;;;-1.00;99.90;;;;;;5016838;28;20224;-69
2023/01/19 07:25:59;;;;;;;10.93;9.30;;;-0.80;99.90;;;;;;5012026;28;20210;-70
2023/01/19 07:28:25;;;;;;;10.07;8.97;;;-0.70;99.90;;;;;;5021844;28;20223;-70
2023/01/19 07:30:52;;;;;;;11.07;9.50;;;-0.70;99.90;;;;;;5016876;28;20205;-71
2023/01/19 07:33:18;;;;;;;9.67;8.67;;;-0.60;99.90;;;;;;5016719;28;20287;-70
2023/01/19 07:35:50;;;;;;;12.03;9.07;;;-0.60;99.90;;;;;;5018723;28;20260;-70
2023/01/19 07:38:17;;;;;;;13.30;9.27;;;-0.50;99.90;;;;;;5020773;28;20176;-70
2023/01/19 07:40:43;;;;;;;9.70;7.20;;;-0.50;99.90;;;;;;5009621;28;20603;-70
2023/01/19 07:43:09;;;;;;;12.80;9.60;;;-0.50;99.90;;;;;;5018092;28;20197;-70
2023/01/19 07:45:35;;;;;;;11.33;8.63;;;-0.60;99.90;;;;;;5003557;28;20252;-71
2023/01/19 07:48:01;;;;;;;10.57;7.50;;;-0.40;99.90;;;;;;5008545;28;20260;-70
2023/01/19 07:50:28;;;;;;;9.93;8.53;;;-0.30;99.90;;;;;;5014003;28;20166;-70
2023/01/19 07:52:54;;;;;;;13.30;8.17;;;-0.40;99.90;;;;;;5011221;28;20198;-70
2023/01/19 07:55:20;;;;;;;9.63;8.40;;;-0.30;99.90;;;;;;5004856;28;20189;-71
2023/01/19 07:57:52;;;;;;;11.27;8.87;;;-0.40;99.90;;;;;;5028180;28;20267;-75
2023/01/19 08:00:20;;;;;;;12.63;8.93;;;-0.30;99.90;;;;;;5022284;28;20235;-71
2023/01/19 08:02:48;;;;;;;12.83;9.50;;;-0.20;99.90;;;;;;5025241;28;20205;-71
2023/01/19 08:05:16;;;;;;;6.07;4.80;;;-0.20;99.90;;;;;;5019109;28;20201;-71
2023/01/19 08:07:41;;;;;;;12.33;9.40;;;-0.10;99.90;;;;;;5027883;28;20259;-72
2023/01/19 08:10:08;;;;;;;9.90;8.07;;;0.00;99.90;;;;;;5029607;28;20264;-72
2023/01/19 08:12:33;;;;;;;9.93;8.90;;;0.10;99.90;;;;;;5020068;28;20188;-72
2023/01/19 08:14:59;;;;;;;10.93;7.97;;;0.20;99.90;;;;;;5019694;28;20185;-72
2023/01/19 08:17:24;;;;;;;12.80;9.37;;;0.20;99.90;;;;;;5022438;28;20193;-74
2023/01/19 08:19:50;;;;;;;10.63;8.37;;;0.20;99.90;;;;;;5021391;28;20200;-74
2023/01/19 08:22:16;;;;;;;8.97;7.23;;;0.20;99.90;;;;;;5023753;28;20178;-76
2023/01/19 08:24:41;;;;;;;6.13;4.87;;;0.30;99.90;;;;;;5016706;28;20221;-72
2023/01/19 08:27:08;;;;;;;13.17;7.63;;;0.50;99.90;;;;;;5026405;28;20224;-72
2023/01/19 08:29:34;;;;;;;10.03;8.23;;;0.50;99.90;;;;;;5015682;28;20652;-72
2023/01/19 08:32:01;;;;;;;8.97;5.57;;;0.60;99.90;;;;;;5021038;28;20185;-72
2023/01/19 08:34:29;;;;;;;8.57;7.73;;;0.70;99.90;;;;;;5018792;28;20192;-72
2023/01/19 08:36:55;;;;;;;8.90;7.77;;;0.80;99.90;;;;;;5022368;28;20184;-72
2023/01/19 08:39:22;;;;;;;10.80;7.30;;;0.90;99.90;;;;;;5020724;28;20196;-72
2023/01/19 08:41:49;;;;;;;10.60;7.63;;;0.90;99.90;;;;;;5028021;28;20626;-72
2023/01/19 08:44:14;;;;;;;7.93;7.13;;;1.00;99.90;;;;;;5012768;28;20617;-71
2023/01/19 08:46:40;;;;;;;9.20;8.30;;;1.10;99.90;;;;;;5027100;28;20200;-72
2023/01/19 08:49:06;;;;;;;10.40;8.57;;;1.20;99.90;;;;;;5017285;28;20204;-72
2023/01/19 08:51:32;;;;;;;9.67;7.80;;;1.30;99.90;;;;;;5016168;28;20212;-72
2023/01/19 08:53:58;;;;;;;10.23;7.47;;;1.40;99.90;;;;;;5026251;28;20219;-71
2023/01/19 08:56:23;;;;;;;10.43;7.63;;;1.60;99.90;;;;;;5028948;28;20644;-72
2023/01/19 08:58:49;;;;;;;7.80;6.70;;;1.70;99.90;;;;;;5018800;28;20211;-71
2023/01/19 09:01:15;;;;;;;8.83;6.87;;;1.80;99.90;;;;;;5017506;28;20680;-74
2023/01/19 09:03:42;;;;;;;9.57;6.10;;;1.90;99.90;;;;;;5019743;28;20589;-74
2023/01/19 09:06:09;;;;;;;7.83;6.33;;;2.00;99.90;;;;;;5027044;28;20208;-72
2023/01/19 09:08:34;;;;;;;6.77;6.00;;;2.20;99.90;;;;;;5028502;28;20181;-72
2023/01/19 09:11:00;;;;;;;9.13;7.57;;;2.30;99.90;;;;;;5024743;28;20234;-72
2023/01/19 09:13:26;;;;;;;7.87;6.97;;;2.50;99.90;;;;;;5022244;28;20201;-72
2023/01/19 09:15:52;;;;;;;9.50;7.57;;;2.70;99.90;;;;;;5026707;28;20173;-75
2023/01/19 09:18:20;;;;;;;8.80;4.93;;;2.80;99.90;;;;;;5024484;28;20272;-73
2023/01/19 09:20:48;;;;;;;7.53;6.78;;;3.10;99.90;;;;;;5018359;28;20189;-72
2023/01/19 09:23:16;;;;;;;7.88;6.57;;;3.10;99.90;;;;;;5022707;28;20224;-72
2023/01/19 09:25:44;;;;;;;8.40;6.18;;;3.10;99.90;;;;;;5023126;28;20573;-72
2023/01/19 09:28:11;;;;;;;8.20;7.10;;;3.20;99.90;;;;;;5023188;28;20189;-72
2023/01/19 09:30:38;;;;;;;10.25;7.45;;;3.10;99.90;;;;;;5019201;28;20276;-71
2023/01/19 09:33:06;;;;;;;10.05;8.13;;;3.20;99.90;;;;;;5016107;28;20726;-72
2023/01/19 09:35:35;;;;;;;9.93;7.88;;;3.30;99.90;;;;;;5022430;28;20182;-72
2023/01/19 09:38:00;;;;;;;5.93;5.35;;;3.30;99.90;;;;;;5016129;28;20184;-73
2023/01/19 09:40:26;;;;;;;5.72;4.68;;;3.50;99.90;;;;;;5009731;28;20236;-72
2023/01/19 09:43:31;;;;;;;8.15;6.13;;;3.60;99.90;;;;;;5025540;28;20201;-72
2023/01/19 09:46:02;;;;;;;8.23;5.88;;;3.40;99.90;;;;;;5008862;28;20287;-74
2023/01/19 09:48:40;;;;;;;9.40;7.07;;;3.30;99.90;;;;;;5016983;28;20542;-73
2023/01/19 09:51:10;;;;;;;6.80;4.97;;;3.10;99.90;;;;;;5018648;28;20232;-73
2023/01/19 09:54:01;;;;;;;10.68;5.85;;;3.10;99.90;;;;;;5017513;28;20201;-73
2023/01/19 09:56:28;;;;;;;5.18;4.68;;;3.00;99.90;;;;;;5029530;28;20187;-72
2023/01/19 09:58:53;;;;;;;6.90;6.30;;;3.00;99.90;;;;;;5020966;28;20215;-72
2023/01/19 10:01:48;;;;;;;6.95;5.72;;;3.10;99.90;;;;;;5025568;28;20216;-74
2023/01/19 10:04:20;;;;;;;6.95;5.85;;;3.40;99.90;;;;;;5028943;28;20201;-73
2023/01/19 10:06:46;;;;;;;11.60;6.40;;;3.90;99.90;;;;;;5022499;28;20217;-75
2023/01/19 10:09:33;;;;;;;7.40;6.28;;;4.30;99.90;;;;;;5024586;28;20280;-75
2023/01/19 10:12:37;;;;;;;6.32;4.72;;;4.80;99.90;;;;;;5015479;28;20268;-75
2023/01/19 10:15:33;;;;;;;5.43;5.00;;;5.40;99.90;;;;;;5007252;28;20230;-72
2023/01/19 10:18:07;;;;;;;7.10;5.65;;;5.80;99.90;;;;;;5017683;28;20189;-75
2023/01/19 10:20:45;;;;;;;6.57;5.40;;;6.30;99.90;;;;;;5011863;28;20536;-74
2023/01/19 10:23:19;;;;;;;6.70;5.63;;;7.30;99.90;;;;;;5016828;28;20288;-72
2023/01/19 10:25:45;;;;;;;7.28;6.13;;;8.40;99.00;;;;;;5013132;28;20303;-74
2023/01/19 10:28:13;;;;;;;5.80;5.20;;;9.10;96.20;;;;;;5026073;28;20528;-74
2023/01/19 10:30:41;;;;;;;5.18;4.50;;;10.10;93.40;;;;;;5024009;28;20181;-75
2023/01/19 10:33:10;;;;;;;7.38;4.95;;;11.00;88.40;;;;;;5015592;28;20193;-72
2023/01/19 10:35:35;;;;;;;7.18;4.97;;;11.60;83.10;;;;;;5024975;28;20272;-72
2023/01/19 10:38:02;;;;;;;5.55;4.50;;;11.80;79.10;;;;;;5026260;28;20271;-72
2023/01/19 10:40:46;;;;;;;5.30;4.80;;;11.80;77.20;;;;;;5012553;28;20181;-73
2023/01/19 10:43:33;;;;;;;4.85;4.45;;;11.80;76.00;;;;;;5018758;28;20216;-75
2023/01/19 10:46:00;;;;;;;6.35;5.38;;;11.40;73.90;;;;;;5016155;28;20212;-75
2023/01/19 10:48:35;;;;;;;6.25;5.47;;;11.00;74.00;;;;;;5026429;28;20182;-75
2023/01/19 10:51:04;;;;;;;8.98;5.28;;;10.50;75.60;;;;;;5020708;28;20168;-74
2023/01/19 10:53:30;;;;;;;5.32;4.82;;;10.50;76.30;;;;;;5030827;28;20200;-74
2023/01/19 10:56:33;;;;;;;4.55;4.18;;;10.40;76.20;;;;;;5015834;28;20181;-75
2023/01/19 10:59:00;;;;;;;5.55;5.05;;;10.30;74.80;;;;;;5009527;28;20263;-76
2023/01/19 11:01:28;;;;;;;5.72;5.22;;;10.30;76.00;;;;;;5018897;28;20258;-76
2023/01/19 11:03:58;;;;;;;5.90;5.07;;;10.50;75.50;;;;;;5016140;28;20247;-75
2023/01/19 11:06:29;;;;;;;4.88;3.78;;;10.50;74.80;;;;;;5011689;28;20694;-77
2023/01/19 11:09:19;;;;;;;5.68;4.72;;;10.70;73.70;;;;;;5010333;28;20173;-77
2023/01/19 11:11:50;;;;;;;5.13;4.63;;;11.40;72.00;;;;;;5019163;28;20268;-76
2023/01/19 11:14:19;;;;;;;7.72;4.90;;;11.80;70.60;;;;;;5014323;28;20231;-76
2023/01/19 11:16:48;;;;;;;4.82;4.40;;;12.40;68.00;;;;;;5019266;28;20715;-76
2023/01/19 11:19:19;;;;;;;5.50;5.05;;;12.90;67.10;;;;;;5020909;28;20217;-77
2023/01/19 11:21:44;;;;;;;6.72;5.45;;;13.60;65.80;;;;;;5022866;28;20188;-76
2023/01/19 11:24:13;;;;;;;6.75;5.00;;;14.10;64.20;;;;;;5016825;28;20581;-77
2023/01/19 11:26:46;;;;;;;5.20;4.25;;;14.80;61.90;;;;;;5007213;28;20215;-79
2023/01/19 11:29:23;;;;;;;7.55;5.13;;;15.00;59.00;;;;;;5015274;28;20231;-78
2023/01/19 11:31:51;;;;;;;5.10;4.70;;;15.30;59.10;;;;;;5022563;28;20180;-76
2023/01/19 11:34:34;;;;;;;5.53;4.88;;;15.10;57.90;;;;;;5017744;28;20266;-76
2023/01/19 11:37:30;;;;;;;4.25;3.83;;;15.60;57.30;;;;;;5013080;28;20595;-76
2023/01/19 11:39:58;;;;;;;5.13;4.70;;;16.00;56.10;;;;;;5031338;28;20264;-76
2023/01/19 11:42:25;;;;;;;4.35;3.97;;;16.10;55.20;;;;;;5012182;28;20186;-76
2023/01/19 11:44:59;;;;;;;5.55;5.03;;;16.40;54.70;;;;;;5013744;28;20667;-76
2023/01/19 11:47:27;;;;;;;5.13;4.63;;;17.30;53.80;;;;;;5011384;28;20255;-76
2023/01/19 11:50:04;;;;;;;5.18;4.75;;;18.20;52.50;;;;;;5019275;28;20234;-77
2023/01/19 11:52:41;;;;;;;4.78;4.40;;;18.90;50.40;;;;;;5013126;28;20675;-77
2023/01/19 11:55:10;;;;;;;5.75;4.90;;;19.30;49.80;;;;;;5010161;28;20189;-77
2023/01/19 11:57:36;;;;;;;4.88;4.05;;;19.70;48.60;;;;;;5018843;28;20724;-76
2023/01/19 12:00:18;;;;;;;4.95;4.35;;;20.30;47.20;;;;;;5015786;28;20550;-77
2023/01/19 12:02:46;;;;;;;4.60;4.20;;;20.60;46.00;;;;;;5017234;28;20644;-76
2023/01/19 12:05:17;;;;;;;4.70;4.18;;;21.00;45.60;;;;;;5015674;28;20267;-77
2023/01/19 12:07:45;;;;;;;3.33;3.10;;;20.60;45.70;;;;;;5015964;28;20197;-76
2023/01/19 12:10:27;;;;;;;5.00;4.53;;;20.50;44.80;;;;;;5015995;28;20181;-76
2023/01/19 12:12:55;;;;;;;5.57;4.50;;;19.60;45.30;;;;;;5018264;28;20671;-77
2023/01/19 12:15:40;;;;;;;5.68;4.55;;;18.50;46.70;;;;;;5014471;28;20236;-76
2023/01/19 12:18:11;;;;;;;5.20;4.60;;;17.30;48.10;;;;;;5016353;28;20187;-76
2023/01/19 12:20:45;;;;;;;5.38;4.50;;;17.00;48.70;;;;;;5016735;28;20311;-77
2023/01/19 12:23:10;;;;;;;4.13;3.83;;;17.30;48.80;;;;;;5016887;28;20209;-77
2023/01/19 12:26:03;;;;;;;5.30;4.32;;;17.60;48.30;;;;;;5012394;28;20193;-77
2023/01/19 12:28:35;;;;;;;4.30;3.90;;;17.30;48.00;;;;;;5019265;28;20576;-77
2023/01/19 12:31:02;;;;;;;3.95;3.65;;;17.20;48.30;;;;;;5017887;28;20182;-76
2023/01/19 12:33:28;;;;;;;4.20;3.80;;;17.70;47.80;;;;;;5011757;28;20197;-77
2023/01/19 12:35:57;;;;;;;3.90;3.60;;;17.80;47.70;;;;;;5013620;28;20291;-76
2023/01/19 12:38:39;;;;;;;5.15;4.65;;;18.10;47.10;;;;;;5011877;28;20218;-77
2023/01/19 12:41:25;;;;;;;4.25;3.85;;;18.00;46.90;;;;;;5012447;28;20562;-76
2023/01/19 12:44:09;;;;;;;6.13;4.25;;;18.10;46.50;;;;;;5013869;28;20204;-76
2023/01/19 12:46:39;;;;;;;5.57;4.70;;;17.50;46.20;;;;;;5014084;28;20201;-77
2023/01/19 12:49:21;;;;;;;6.15;4.28;;;16.50;46.90;;;;;;5025989;28;20180;-76
2023/01/19 12:51:47;;;;;;;3.28;3.00;;;15.50;48.10;;;;;;5015420;28;20224;-77
2023/01/19 12:54:31;;;;;;;4.20;3.70;;;14.90;49.10;;;;;;5017953;28;20204;-76
2023/01/19 12:57:01;;;;;;;3.83;2.88;;;14.40;50.00;;;;;;5013995;28;20168;-76
2023/01/19 12:59:29;;;;;;;3.28;2.97;;;14.10;50.60;;;;;;5010214;28;20268;-77
2023/01/19 13:02:16;;;;;;;3.70;3.40;;;14.00;50.50;;;;;;5015537;28;20181;-77
2023/01/19 13:05:20;;;;;;;4.22;3.30;;;13.70;51.30;;;;;;5012772;28;20738;-77
2023/01/19 13:08:00;;;;;;;5.00;4.18;;;13.00;52.00;;;;;;5016193;28;20185;-77
2023/01/19 13:10:52;;;;;;;4.18;3.65;;;12.40;54.00;;;;;;5013830;28;20181;-77
2023/01/19 13:13:27;;;;;;;3.88;2.90;;;12.20;54.10;;;;;;5014611;28;20224;-77
2023/01/19 13:15:53;;;;;;;5.93;4.03;;;11.70;54.70;;;;;;5017413;28;20183;-77